sensor_id;sensor_type;location;lat;lon;timestamp;pressure;altitude;pressure_sealevel;temperature;humidity
43818;BME280;29868;47.360;18.984;2023-08-06T00:00:09;63574.19;;;19.90;100.00
43818;BME280;29868;47.360;18.984;2023-08-06T00:02:35;63539.13;;;19.63;100.00
43818;BME280;29868;47.360;18.984;2023-08-06T00:05:00;63542.06;;;19.61;100.00
43818;BME280;29868;47.360;18.984;2023-08-06T00:07:26;63543.63;;;19.67;100.00
43818;BME280;29868;47.360;18.984;2023-08-06T00:09:51;63545.13;;;19.66;100.00
43818;BME280;29868;47.360;18.984;2023-08-06T00:12:17;63536.84;;;19.61;100.00
43818;BME280;29868;47.360;18.984;2023-08-06T00:14:42;63528.75;;;19.52;100.00
43818;BME280;29868;47.360;18.984;2023-08-06T00:17:08;63535.16;;;19.60;100.00
43818;BME280;29868;47.360;18.984;2023-08-06T00:19:33;63534.94;;;19.57;100.00
43818;BME280;29868;47.360;18.984;2023-08-06T00:21:58;63538.00;;;19.62;100.00
43818;BME280;29868;47.360;18.984;2023-08-06T00:24:24;63551.31;;;19.72;100.00
43818;BME280;29868;47.360;18.984;2023-08-06T00:26:49;63559.75;;;19.80;100.00
43818;BME280;29868;47.360;18.984;2023-08-06T00:29:14;63571.94;;;19.88;100.00
43818;BME280;29868;47.360;18.984;2023-08-06T00:31:40;63555.25;;;19.76;100.00
43818;BME280;29868;47.360;18.984;2023-08-06T00:34:05;63553.75;;;19.77;100.00
43818;BME280;29868;47.360;18.984;2023-08-06T00:36:31;63565.75;;;19.83;100.00
43818;BME280;29868;47.360;18.984;2023-08-06T00:38:56;63565.19;;;19.82;100.00
43818;BME280;29868;47.360;18.984;2023-08-06T00:41:22;63561.47;;;19.81;100.00
43818;BME280;29868;47.360;18.984;2023-08-06T00:43:47;63558.41;;;19.76;100.00
43818;BME280;29868;47.360;18.984;2023-08-06T00:46:13;63553.91;;;19.72;100.00
43818;BME280;29868;47.360;18.984;2023-08-06T00:48:40;63552.44;;;19.73;100.00
43818;BME280;29868;47.360;18.984;2023-08-06T00:51:06;63558.25;;;19.81;100.00
43818;BME280;29868;47.360;18.984;2023-08-06T00:53:31;63559.41;;;19.82;100.00
43818;BME280;29868;47.360;18.984;2023-08-06T00:55:57;63556.59;;;19.79;100.00
43818;BME280;29868;47.360;18.984;2023-08-06T00:58:24;63558.97;;;19.77;100.00
43818;BME280;29868;47.360;18.984;2023-08-06T01:00:50;63554.47;;;19.73;100.00
43818;BME280;29868;47.360;18.984;2023-08-06T01:03:15;63559.75;;;19.80;100.00
43818;BME280;29868;47.360;18.984;2023-08-06T01:05:41;63544.19;;;19.68;100.00
43818;BME280;29868;47.360;18.984;2023-08-06T01:08:10;63545.53;;;19.72;100.00
43818;BME280;29868;47.360;18.984;2023-08-06T01:15:55;63537.78;;;19.60;100.00
43818;BME280;29868;47.360;18.984;2023-08-06T01:18:24;63543.41;;;19.65;100.00
43818;BME280;29868;47.360;18.984;2023-08-06T01:20:50;63545.31;;;19.69;100.00
43818;BME280;29868;47.360;18.984;2023-08-06T01:23:15;63552.63;;;19.76;100.00
43818;BME280;29868;47.360;18.984;2023-08-06T01:31:27;63538.00;;;19.62;100.00
43818;BME280;29868;47.360;18.984;2023-08-06T01:33:56;63547.91;;;19.69;100.00
43818;BME280;29868;47.360;18.984;2023-08-06T01:36:23;63539.44;;;19.61;100.00
43818;BME280;29868;47.360;18.984;2023-08-06T01:38:54;63530.66;;;19.56;100.00
43818;BME280;29868;47.360;18.984;2023-08-06T01:41:19;63522.75;;;19.49;100.00
43818;BME280;29868;47.360;18.984;2023-08-06T01:43:45;63535.50;;;19.58;100.00
43818;BME280;29868;47.360;18.984;2023-08-06T01:46:10;63524.44;;;19.50;100.00
43818;BME280;29868;47.360;18.984;2023-08-06T01:48:35;63514.88;;;19.41;100.00
43818;BME280;29868;47.360;18.984;2023-08-06T01:51:03;63498.00;;;19.26;100.00
43818;BME280;29868;47.360;18.984;2023-08-06T01:53:28;63498.16;;;19.22;100.00
43818;BME280;29868;47.360;18.984;2023-08-06T01:55:54;63503.00;;;19.24;100.00
43818;BME280;29868;47.360;18.984;2023-08-06T01:58:19;63502.66;;;19.26;100.00
43818;BME280;29868;47.360;18.984;2023-08-06T02:00:44;63485.03;;;19.14;100.00
43818;BME280;29868;47.360;18.984;2023-08-06T02:03:10;63491.94;;;19.16;100.00
43818;BME280;29868;47.360;18.984;2023-08-06T02:05:35;63488.78;;;19.15;100.00
43818;BME280;29868;47.360;18.984;2023-08-06T02:08:01;63487.88;;;19.17;100.00
43818;BME280;29868;47.360;18.984;2023-08-06T02:10:26;63487.88;;;19.17;100.00
43818;BME280;29868;47.360;18.984;2023-08-06T02:12:51;63480.53;;;19.10;100.00
43818;BME280;29868;47.360;18.984;2023-08-06T02:15:17;63469.28;;;19.00;100.00
43818;BME280;29868;47.360;18.984;2023-08-06T02:17:42;63461.38;;;18.93;100.00
43818;BME280;29868;47.360;18.984;2023-08-06T02:20:08;63466.81;;;18.95;100.00
43818;BME280;29868;47.360;18.984;2023-08-06T02:22:33;63477.72;;;19.08;100.00
43818;BME280;29868;47.360;18.984;2023-08-06T02:24:59;63471.88;;;19.00;100.00
43818;BME280;29868;47.360;18.984;2023-08-06T02:27:24;63478.09;;;19.06;100.00
43818;BME280;29868;47.360;18.984;2023-08-06T02:29:50;63482.44;;;19.14;100.00
43818;BME280;29868;47.360;18.984;2023-08-06T02:32:15;63490.25;;;19.14;100.00
43818;BME280;29868;47.360;18.984;2023-08-06T02:34:41;63483.72;;;19.11;100.00
43818;BME280;29868;47.360;18.984;2023-08-06T02:37:07;63482.94;;;19.08;100.00
43818;BME280;29868;47.360;18.984;2023-08-06T02:39:33;63476.94;;;19.05;100.00
43818;BME280;29868;47.360;18.984;2023-08-06T02:41:59;63462.94;;;18.99;100.00
43818;BME280;29868;47.360;18.984;2023-08-06T02:44:27;63451.06;;;18.81;100.00
43818;BME280;29868;47.360;18.984;2023-08-06T02:46:53;63456.66;;;18.86;100.00
43818;BME280;29868;47.360;18.984;2023-08-06T02:49:19;63453.50;;;18.86;100.00
43818;BME280;29868;47.360;18.984;2023-08-06T02:51:47;63457.81;;;18.87;100.00
43818;BME280;29868;47.360;18.984;2023-08-06T02:54:12;63452.38;;;18.85;100.00
43818;BME280;29868;47.360;18.984;2023-08-06T02:56:38;63452.94;;;18.85;100.00
43818;BME280;29868;47.360;18.984;2023-08-06T02:59:03;63456.53;;;18.91;100.00
43818;BME280;29868;47.360;18.984;2023-08-06T03:01:29;63452.75;;;18.83;100.00
43818;BME280;29868;47.360;18.984;2023-08-06T03:03:54;63444.88;;;18.76;100.00
43818;BME280;29868;47.360;18.984;2023-08-06T03:06:20;63460.97;;;18.88;100.00
43818;BME280;29868;47.360;18.984;2023-08-06T03:08:45;63453.09;;;18.81;100.00
43818;BME280;29868;47.360;18.984;2023-08-06T03:11:11;63444.88;;;18.76;100.00
43818;BME280;29868;47.360;18.984;2023-08-06T03:13:36;63452.75;;;18.83;100.00
43818;BME280;29868;47.360;18.984;2023-08-06T03:16:01;63449.38;;;18.80;100.00
43818;BME280;29868;47.360;18.984;2023-08-06T03:18:27;63453.88;;;18.84;100.00
43818;BME280;29868;47.360;18.984;2023-08-06T03:20:53;63446.41;;;18.82;100.00
43818;BME280;29868;47.360;18.984;2023-08-06T03:23:18;63457.59;;;18.85;100.00
43818;BME280;29868;47.360;18.984;2023-08-06T03:25:44;63447.31;;;18.80;100.00
43818;BME280;29868;47.360;18.984;2023-08-06T03:28:10;63459.50;;;18.89;100.00
43818;BME280;29868;47.360;18.984;2023-08-06T03:30:35;63463.22;;;18.90;100.00
43818;BME280;29868;47.360;18.984;2023-08-06T03:33:01;63456.13;;;18.86;100.00
43818;BME280;29868;47.360;18.984;2023-08-06T03:35:26;63455.72;;;18.81;100.00
43818;BME280;29868;47.360;18.984;2023-08-06T03:37:51;63455.75;;;18.88;100.00
43818;BME280;29868;47.360;18.984;2023-08-06T03:40:17;63461.19;;;18.90;100.00
43818;BME280;29868;47.360;18.984;2023-08-06T03:42:42;63461.38;;;18.93;100.00
43818;BME280;29868;47.360;18.984;2023-08-06T03:45:08;63467.38;;;18.96;100.00
43818;BME280;29868;47.360;18.984;2023-08-06T03:47:34;63456.88;;;18.89;100.00
43818;BME280;29868;47.360;18.984;2023-08-06T03:49:59;63460.97;;;18.88;100.00
43818;BME280;29868;47.360;18.984;2023-08-06T03:52:25;63459.16;;;18.91;100.00
43818;BME280;29868;47.360;18.984;2023-08-06T03:54:50;63449.00;;;18.82;100.00
43818;BME280;29868;47.360;18.984;2023-08-06T03:57:15;63448.22;;;18.79;100.00
43818;BME280;29868;47.360;18.984;2023-08-06T03:59:41;63451.25;;;18.84;100.00
43818;BME280;29868;47.360;18.984;2023-08-06T04:02:06;63453.88;;;18.84;100.00
43818;BME280;29868;47.360;18.984;2023-08-06T04:04:32;63455.00;;;18.85;100.00
43818;BME280;29868;47.360;18.984;2023-08-06T04:06:57;63451.25;;;18.84;100.00
43818;BME280;29868;47.360;18.984;2023-08-06T04:09:22;63452.38;;;18.85;100.00
43818;BME280;29868;47.360;18.984;2023-08-06T04:11:48;63446.75;;;18.80;100.00
43818;BME280;29868;47.360;18.984;2023-08-06T04:14:13;63458.72;;;18.86;100.00
43818;BME280;29868;47.360;18.984;2023-08-06T04:16:39;63453.88;;;18.84;100.00
43818;BME280;29868;47.360;18.984;2023-08-06T04:19:04;63447.88;;;18.81;100.00
43818;BME280;29868;47.360;18.984;2023-08-06T04:21:29;63445.63;;;18.79;100.00
43818;BME280;29868;47.360;18.984;2023-08-06T04:23:56;63448.59;;;18.77;100.00
43818;BME280;29868;47.360;18.984;2023-08-06T04:26:21;63446.75;;;18.80;100.00
43818;BME280;29868;47.360;18.984;2023-08-06T04:28:47;63441.84;;;18.70;100.00
43818;BME280;29868;47.360;18.984;2023-08-06T04:31:14;63445.44;;;18.76;100.00
43818;BME280;29868;47.360;18.984;2023-08-06T04:33:39;63448.81;;;18.79;100.00
43818;BME280;29868;47.360;18.984;2023-08-06T04:36:04;63428.38;;;18.65;100.00
43818;BME280;29868;47.360;18.984;2023-08-06T04:38:30;63435.81;;;18.67;100.00
43818;BME280;29868;47.360;18.984;2023-08-06T04:40:55;63425.72;;;18.58;100.00
43818;BME280;29868;47.360;18.984;2023-08-06T04:43:21;63424.59;;;18.57;100.00
43818;BME280;29868;47.360;18.984;2023-08-06T04:45:50;63422.75;;;18.60;100.00
43818;BME280;29868;47.360;18.984;2023-08-06T04:48:16;63428.16;;;18.63;100.00
43818;BME280;29868;47.360;18.984;2023-08-06T04:50:45;63429.09;;;18.61;100.00
43818;BME280;29868;47.360;18.984;2023-08-06T04:53:11;63418.03;;;18.54;100.00
43818;BME280;29868;47.360;18.984;2023-08-06T04:55:36;63413.88;;;18.47;100.00
43818;BME280;29868;47.360;18.984;2023-08-06T04:58:02;63420.88;;;18.56;100.00
43818;BME280;29868;47.360;18.984;2023-08-06T05:00:28;63413.53;;;18.50;100.00
43818;BME280;29868;47.360;18.984;2023-08-06T05:02:53;63415.22;;;18.51;100.00
43818;BME280;29868;47.360;18.984;2023-08-06T05:05:18;63420.88;;;18.56;100.00
43818;BME280;29868;47.360;18.984;2023-08-06T05:07:47;63421.41;;;18.57;100.00
43818;BME280;29868;47.360;18.984;2023-08-06T05:10:13;63418.19;;;18.49;100.00
43818;BME280;29868;47.360;18.984;2023-08-06T05:12:38;63408.28;;;18.42;100.00
43818;BME280;29868;47.360;18.984;2023-08-06T05:15:04;63411.28;;;18.47;100.00
43818;BME280;29868;47.360;18.984;2023-08-06T05:17:30;63392.16;;;18.30;100.00
43818;BME280;29868;47.360;18.984;2023-08-06T05:19:55;63408.81;;;18.43;100.00
43818;BME280;29868;47.360;18.984;2023-08-06T05:22:21;63415.59;;;18.49;100.00
43818;BME280;29868;47.360;18.984;2023-08-06T05:24:46;63410.16;;;18.46;100.00
43818;BME280;29868;47.360;18.984;2023-08-06T05:27:11;63417.47;;;18.53;100.00
43818;BME280;29868;47.360;18.984;2023-08-06T05:29:37;63410.72;;;18.47;100.00
43818;BME280;29868;47.360;18.984;2023-08-06T05:32:02;63409.16;;;18.41;100.00
43818;BME280;29868;47.360;18.984;2023-08-06T05:34:28;63396.50;;;18.39;100.00
43818;BME280;29868;47.360;18.984;2023-08-06T05:36:54;63408.28;;;18.42;100.00
43818;BME280;29868;47.360;18.984;2023-08-06T05:39:19;63404.88;;;18.39;100.00
43818;BME280;29868;47.360;18.984;2023-08-06T05:41:45;63400.59;;;18.38;100.00
43818;BME280;29868;47.360;18.984;2023-08-06T05:44:10;63416.72;;;18.50;100.00
43818;BME280;29868;47.360;18.984;2023-08-06T05:46:36;63406.78;;;18.43;100.00
43818;BME280;29868;47.360;18.984;2023-08-06T05:49:01;63416.34;;;18.52;100.00
43818;BME280;29868;47.360;18.984;2023-08-06T05:51:27;63408.69;;;18.47;100.00
43818;BME280;29868;47.360;18.984;2023-08-06T05:53:53;63429.31;;;18.64;100.00
43818;BME280;29868;47.360;18.984;2023-08-06T05:56:18;63436.97;;;18.68;100.00
43818;BME280;29868;47.360;18.984;2023-08-06T05:58:44;63408.47;;;18.45;100.00
43818;BME280;29868;47.360;18.984;2023-08-06T06:01:09;63411.09;;;18.45;100.00
43818;BME280;29868;47.360;18.984;2023-08-06T06:03:34;63411.84;;;18.48;100.00
43818;BME280;29868;47.360;18.984;2023-08-06T06:06:01;63397.22;;;18.35;100.00
43818;BME280;29868;47.360;18.984;2023-08-06T06:08:26;63390.84;;;18.27;100.00
43818;BME280;29868;47.360;18.984;2023-08-06T06:10:52;63398.91;;;18.36;100.00
43818;BME280;29868;47.360;18.984;2023-08-06T06:13:17;63393.28;;;18.31;100.00
43818;BME280;29868;47.360;18.984;2023-08-06T06:15:42;63410.31;;;18.42;100.00
43818;BME280;29868;47.360;18.984;2023-08-06T06:18:08;63389.34;;;18.28;100.00
43818;BME280;29868;47.360;18.984;2023-08-06T06:20:33;63395.88;;;18.31;100.00
43818;BME280;29868;47.360;18.984;2023-08-06T06:22:59;63396.09;;;18.34;100.00
43818;BME280;29868;47.360;18.984;2023-08-06T06:25:24;63407.72;;;18.42;100.00
43818;BME280;29868;47.360;18.984;2023-08-06T06:27:50;63398.72;;;18.34;100.00
43818;BME280;29868;47.360;18.984;2023-08-06T06:30:15;63391.38;;;18.27;100.00
43818;BME280;29868;47.360;18.984;2023-08-06T06:32:40;63371.34;;;18.11;100.00
43818;BME280;29868;47.360;18.984;2023-08-06T06:35:06;63381.47;;;18.20;100.00
43818;BME280;29868;47.360;18.984;2023-08-06T06:37:32;63382.94;;;18.19;100.00
43818;BME280;29868;47.360;18.984;2023-08-06T06:39:57;63393.06;;;18.29;100.00
43818;BME280;29868;47.360;18.984;2023-08-06T06:42:23;63394.97;;;18.33;100.00
43818;BME280;29868;47.360;18.984;2023-08-06T06:44:48;63395.13;;;18.28;100.00
43818;BME280;29868;47.360;18.984;2023-08-06T06:47:14;63390.28;;;18.26;100.00
43818;BME280;29868;47.360;18.984;2023-08-06T06:49:39;63403.78;;;18.38;100.00
43818;BME280;29868;47.360;18.984;2023-08-06T06:52:05;63389.69;;;18.26;100.00
43818;BME280;29868;47.360;18.984;2023-08-06T06:54:31;63412.06;;;18.51;100.00
43818;BME280;29868;47.360;18.984;2023-08-06T06:56:56;63414.44;;;18.48;100.00
43818;BME280;29868;47.360;18.984;2023-08-06T06:59:22;63436.97;;;18.68;100.00
43818;BME280;29868;47.360;18.984;2023-08-06T07:01:47;63448.66;;;18.84;100.00
43818;BME280;29868;47.360;18.984;2023-08-06T07:04:13;63446.19;;;18.79;100.00
43818;BME280;29868;47.360;18.984;2023-08-06T07:06:38;63464.22;;;18.95;100.00
43818;BME280;29868;47.360;18.984;2023-08-06T07:09:03;63451.41;;;18.79;100.00
43818;BME280;29868;47.360;18.984;2023-08-06T07:11:29;63444.72;;;18.80;100.00
43818;BME280;29868;47.360;18.984;2023-08-06T07:13:57;63453.50;;;18.86;100.00
43818;BME280;29868;47.360;18.984;2023-08-06T07:16:26;63443.59;;;18.79;100.00
43818;BME280;29868;47.360;18.984;2023-08-06T07:18:52;63447.88;;;18.81;100.00
43818;BME280;29868;47.360;18.984;2023-08-06T07:21:18;63446.75;;;18.80;100.00
43818;BME280;29868;47.360;18.984;2023-08-06T07:23:43;63441.69;;;18.75;100.00
43818;BME280;29868;47.360;18.984;2023-08-06T07:26:09;63433.81;;;18.68;100.00
43818;BME280;29868;47.360;18.984;2023-08-06T07:28:34;63439.91;;;18.66;100.00
43818;BME280;29868;47.360;18.984;2023-08-06T07:31:00;63413.31;;;18.47;100.00
43818;BME280;29868;47.360;18.984;2023-08-06T07:33:28;63415.78;;;18.52;100.00
43818;BME280;29868;47.360;18.984;2023-08-06T07:35:53;63442.25;;;18.76;100.00
43818;BME280;29868;47.360;18.984;2023-08-06T07:38:19;63434.34;;;18.68;100.00
43818;BME280;29868;47.360;18.984;2023-08-06T07:40:44;63451.63;;;18.82;100.00
43818;BME280;29868;47.360;18.984;2023-08-06T07:43:10;63449.00;;;18.82;100.00
43818;BME280;29868;47.360;18.984;2023-08-06T07:45:35;63426.13;;;18.63;100.00
43818;BME280;29868;47.360;18.984;2023-08-06T07:48:01;63437.75;;;18.71;100.00
43818;BME280;29868;47.360;18.984;2023-08-06T07:50:27;63458.38;;;18.88;100.00
43818;BME280;29868;47.360;18.984;2023-08-06T07:52:52;63468.38;;;19.02;100.00
43818;BME280;29868;47.360;18.984;2023-08-06T07:55:18;63465.69;;;18.94;100.00
43818;BME280;29868;47.360;18.984;2023-08-06T07:57:43;63459.72;;;18.91;100.00
43818;BME280;29868;47.360;18.984;2023-08-06T08:00:09;63455.63;;;18.92;100.00
43818;BME280;29868;47.360;18.984;2023-08-06T08:02:34;63429.31;;;18.64;100.00
43818;BME280;29868;47.360;18.984;2023-08-06T08:05:00;63458.38;;;18.88;100.00
43818;BME280;29868;47.360;18.984;2023-08-06T08:07:25;63449.78;;;18.85;100.00
43818;BME280;29868;47.360;18.984;2023-08-06T08:09:53;63463.66;;;18.95;100.00
43818;BME280;29868;47.360;18.984;2023-08-06T08:12:19;63475.59;;;19.01;100.00
43818;BME280;29868;47.360;18.984;2023-08-06T08:14:44;63474.34;;;19.05;100.00
43818;BME280;29868;47.360;18.984;2023-08-06T08:17:11;63449.78;;;18.85;100.00
43818;BME280;29868;47.360;18.984;2023-08-06T08:19:37;63453.50;;;18.86;100.00
43818;BME280;29868;47.360;18.984;2023-08-06T08:22:02;63466.25;;;18.95;100.00
43818;BME280;29868;47.360;18.984;2023-08-06T08:24:28;63419.16;;;18.55;100.00
43818;BME280;29868;47.360;18.984;2023-08-06T08:26:56;63401.16;;;18.38;100.00
43818;BME280;29868;47.360;18.984;2023-08-06T08:29:22;63398.41;;;18.43;100.00
43818;BME280;29868;47.360;18.984;2023-08-06T08:31:48;63394.41;;;18.32;100.00
43818;BME280;29868;47.360;18.984;2023-08-06T08:34:17;63395.31;;;18.31;100.00
43818;BME280;29868;47.360;18.984;2023-08-06T08:36:43;63388.56;;;18.24;100.00
43818;BME280;29868;47.360;18.984;2023-08-06T08:39:08;63403.22;;;18.38;100.00
43818;BME280;29868;47.360;18.984;2023-08-06T08:41:35;63392.16;;;18.30;100.00
43818;BME280;29868;47.360;18.984;2023-08-06T08:44:01;63408.47;;;18.45;100.00
43818;BME280;29868;47.360;18.984;2023-08-06T08:46:29;63401.16;;;18.38;100.00
43818;BME280;29868;47.360;18.984;2023-08-06T08:48:56;63428.53;;;18.61;100.00
43818;BME280;29868;47.360;18.984;2023-08-06T08:51:25;63415.00;;;18.48;100.00
43818;BME280;29868;47.360;18.984;2023-08-06T08:53:52;63452.59;;;18.87;100.00
43818;BME280;29868;47.360;18.984;2023-08-06T08:56:20;63473.22;;;19.04;100.00
43818;BME280;29868;47.360;18.984;2023-08-06T08:58:46;63490.47;;;19.17;100.00
43818;BME280;29868;47.360;18.984;2023-08-06T09:01:11;63457.44;;;18.89;100.00
43818;BME280;29868;47.360;18.984;2023-08-06T09:03:38;63476.03;;;19.06;100.00
43818;BME280;29868;47.360;18.984;2023-08-06T09:06:04;63471.53;;;19.02;100.00
43818;BME280;29868;47.360;18.984;2023-08-06T09:08:34;63480.53;;;19.10;100.00
43818;BME280;29868;47.360;18.984;2023-08-06T09:11:02;63497.78;;;19.24;100.00
43818;BME280;29868;47.360;18.984;2023-08-06T09:13:28;63499.31;;;19.30;100.00
43818;BME280;29868;47.360;18.984;2023-08-06T09:15:53;63504.94;;;19.35;100.00
43818;BME280;29868;47.360;18.984;2023-08-06T09:18:25;63522.00;;;19.45;100.00
43818;BME280;29868;47.360;18.984;2023-08-06T09:20:52;63538.00;;;19.62;100.00
43818;BME280;29868;47.360;18.984;2023-08-06T09:23:17;63566.88;;;19.84;100.00
43818;BME280;29868;47.360;18.984;2023-08-06T09:25:43;63560.53;;;19.83;100.00
43818;BME280;29868;47.360;18.984;2023-08-06T09:28:08;63578.56;;;19.99;100.00
43818;BME280;29868;47.360;18.984;2023-08-06T09:30:36;63638.88;;;20.54;100.00
43818;BME280;29868;47.360;18.984;2023-08-06T09:33:02;63636.06;;;20.51;100.00
43818;BME280;29868;47.360;18.984;2023-08-06T09:35:31;63634.38;;;20.50;100.00
43818;BME280;29868;47.360;18.984;2023-08-06T09:38:07;63580.38;;;19.96;100.00
43818;BME280;29868;47.360;18.984;2023-08-06T09:40:32;63541.72;;;19.63;100.00
43818;BME280;29868;47.360;18.984;2023-08-06T09:42:58;63563.69;;;19.83;100.00
43818;BME280;29868;47.360;18.984;2023-08-06T09:45:34;63554.31;;;19.77;100.00
43818;BME280;29868;47.360;18.984;2023-08-06T09:48:06;63577.59;;;19.93;100.00
43818;BME280;29868;47.360;18.984;2023-08-06T09:50:33;63558.25;;;19.81;100.00
43818;BME280;29868;47.360;18.984;2023-08-06T09:53:01;63574.00;;;19.88;100.00
43818;BME280;29868;47.360;18.984;2023-08-06T09:55:27;63559.41;;;19.82;100.00
43818;BME280;29868;47.360;18.984;2023-08-06T09:57:53;63573.47;;;19.95;100.00
43818;BME280;29868;47.360;18.984;2023-08-06T10:00:20;63558.25;;;19.81;100.00
43818;BME280;29868;47.360;18.984;2023-08-06T10:02:46;63546.44;;;19.70;100.00
43818;BME280;29868;47.360;18.984;2023-08-06T10:05:12;63581.94;;;20.02;100.00
43818;BME280;29868;47.360;18.984;2023-08-06T10:07:38;63572.16;;;19.91;100.00
43818;BME280;29868;47.360;18.984;2023-08-06T10:10:05;63578.00;;;19.99;100.00
43818;BME280;29868;47.360;18.984;2023-08-06T10:12:39;63600.34;;;20.16;100.00
43818;BME280;29868;47.360;18.984;2023-08-06T10:15:09;63610.13;;;20.28;100.00
43818;BME280;29868;47.360;18.984;2023-08-06T10:17:36;63572.38;;;19.93;100.00
43818;BME280;29868;47.360;18.984;2023-08-06T10:20:08;63602.00;;;20.18;100.00
43818;BME280;29868;47.360;18.984;2023-08-06T10:22:34;63609.91;;;20.25;100.00
43818;BME280;29868;47.360;18.984;2023-08-06T10:25:01;63570.25;;;19.87;100.00
43818;BME280;29868;47.360;18.984;2023-08-06T10:27:34;63598.84;;;20.17;100.00
43818;BME280;29868;47.360;18.984;2023-08-06T10:30:32;63575.16;;;19.96;100.00
43818;BME280;29868;47.360;18.984;2023-08-06T10:33:02;63547.16;;;19.66;100.00
43818;BME280;29868;47.360;18.984;2023-08-06T10:35:37;63532.91;;;19.58;100.00
43818;BME280;29868;47.360;18.984;2023-08-06T10:38:04;63491.44;;;19.23;100.00
43818;BME280;29868;47.360;18.984;2023-08-06T10:40:31;63496.31;;;19.25;100.00
43818;BME280;29868;47.360;18.984;2023-08-06T10:43:04;63489.53;;;19.18;100.00
43818;BME280;29868;47.360;18.984;2023-08-06T10:45:34;63511.88;;;19.36;100.00
43818;BME280;29868;47.360;18.984;2023-08-06T10:48:00;63519.16;;;19.43;100.00
43818;BME280;29868;47.360;18.984;2023-08-06T10:50:25;63526.72;;;19.52;100.00
43818;BME280;29868;47.360;18.984;2023-08-06T10:52:51;63498.56;;;19.27;100.00
43818;BME280;29868;47.360;18.984;2023-08-06T10:55:25;63524.44;;;19.50;100.00
43818;BME280;29868;47.360;18.984;2023-08-06T10:57:51;63535.72;;;19.60;100.00
43818;BME280;29868;47.360;18.984;2023-08-06T11:00:16;63547.19;;;19.73;100.00
43818;BME280;29868;47.360;18.984;2023-08-06T11:02:42;63538.00;;;19.62;100.00
43818;BME280;29868;47.360;18.984;2023-08-06T11:05:09;63530.66;;;19.56;100.00
43818;BME280;29868;47.360;18.984;2023-08-06T11:07:36;63545.88;;;19.69;100.00
43818;BME280;29868;47.360;18.984;2023-08-06T11:10:09;63576.31;;;19.97;100.00
43818;BME280;29868;47.360;18.984;2023-08-06T11:12:35;63545.88;;;19.69;100.00
43818;BME280;29868;47.360;18.984;2023-08-06T11:15:02;63553.75;;;19.77;100.00
43818;BME280;29868;47.360;18.984;2023-08-06T11:17:29;63563.69;;;19.83;100.00
43818;BME280;29868;47.360;18.984;2023-08-06T11:19:55;63583.63;;;20.04;100.00
43818;BME280;29868;47.360;18.984;2023-08-06T11:22:21;63587.38;;;20.05;100.00
43818;BME280;29868;47.360;18.984;2023-08-06T11:24:48;63544.75;;;19.68;100.00
43818;BME280;29868;47.360;18.984;2023-08-06T11:27:14;63547.00;;;19.71;100.00
43818;BME280;29868;47.360;18.984;2023-08-06T11:29:44;63542.66;;;19.62;100.00
43818;BME280;29868;47.360;18.984;2023-08-06T11:32:10;63590.38;;;20.10;100.00
43818;BME280;29868;47.360;18.984;2023-08-06T11:34:36;63653.69;;;20.62;100.00
43818;BME280;29868;47.360;18.984;2023-08-06T11:37:05;63648.88;;;20.68;100.00
43818;BME280;29868;47.360;18.984;2023-08-06T11:39:35;63668.56;;;20.78;100.00
43818;BME280;29868;47.360;18.984;2023-08-06T11:42:06;63611.06;;;20.33;100.00
43818;BME280;29868;47.360;18.984;2023-08-06T11:44:35;63600.34;;;20.16;100.00
43818;BME280;29868;47.360;18.984;2023-08-06T11:47:02;63616.88;;;20.34;100.00
43818;BME280;29868;47.360;18.984;2023-08-06T11:49:45;63699.38;;;21.04;100.00
43818;BME280;29868;47.360;18.984;2023-08-06T11:52:25;63724.03;;;21.31;100.00
43818;BME280;29868;47.360;18.984;2023-08-06T11:55:07;63713.31;;;21.21;100.00
43818;BME280;29868;47.360;18.984;2023-08-06T11:57:38;63678.34;;;20.89;100.00
43818;BME280;29868;47.360;18.984;2023-08-06T12:00:12;63591.72;;;20.13;100.00
43818;BME280;29868;47.360;18.984;2023-08-06T12:02:40;63548.47;;;19.69;100.00
43818;BME280;29868;47.360;18.984;2023-08-06T12:05:14;63532.56;;;19.60;100.00
43818;BME280;29868;47.360;18.984;2023-08-06T12:07:42;63554.13;;;19.75;100.00
43818;BME280;29868;47.360;18.984;2023-08-06T12:10:08;63566.16;;;19.88;100.00
43818;BME280;29868;47.360;18.984;2023-08-06T12:12:34;63593.22;;;20.12;100.00
43818;BME280;29868;47.360;18.984;2023-08-06T12:15:01;63611.97;;;20.25;100.00
43818;BME280;29868;47.360;18.984;2023-08-06T12:17:26;63595.47;;;20.14;100.00
43818;BME280;29868;47.360;18.984;2023-08-06T12:19:52;63579.47;;;19.98;100.00
43818;BME280;29868;47.360;18.984;2023-08-06T12:22:18;63590.53;;;20.05;100.00
43818;BME280;29868;47.360;18.984;2023-08-06T12:24:44;63580.81;;;20.01;100.00
43818;BME280;29868;47.360;18.984;2023-08-06T12:27:11;63650.53;;;20.62;100.00
43818;BME280;29868;47.360;18.984;2023-08-06T12:29:40;63652.56;;;20.61;100.00
43818;BME280;29868;47.360;18.984;2023-08-06T12:32:05;63683.59;;;20.89;100.00
43818;BME280;29868;47.360;18.984;2023-08-06T12:34:31;63665.16;;;20.75;100.00
43818;BME280;29868;47.360;18.984;2023-08-06T12:36:56;63716.50;;;21.22;100.00
43818;BME280;29868;47.360;18.984;2023-08-06T12:39:22;63679.28;;;20.88;100.00
43818;BME280;29868;47.360;18.984;2023-08-06T12:41:47;63672.91;;;20.87;100.00
43818;BME280;29868;47.360;18.984;2023-08-06T12:44:12;63643.97;;;20.58;100.00
43818;BME280;29868;47.360;18.984;2023-08-06T12:46:38;63698.03;;;21.00;100.00